Time;durP1;ratioP1;P1;durP2;ratioP2;P2;SDS_P1;SDS_P2;PMS_P1;PMS_P2;Temp;Humidity;BMP_temperature;BMP_pressure;BME280_temperature;BME280_humidity;BME280_pressure;Samples;Min_cycle;Max_cycle;Signal;HPM_P1;HPM_P2
2022/08/03 00:01:43;;;;;;;4.20;3.80;;;;;;;17.14;100.00;100174.23;1738898;81;20933;-43
2022/08/03 00:04:10;;;;;;;4.72;3.47;;;;;;;17.15;100.00;100173.31;1749164;82;21064;-43
2022/08/03 00:06:37;;;;;;;4.45;3.83;;;;;;;17.15;100.00;100169.84;1749160;82;21237;-43
2022/08/03 00:09:06;;;;;;;7.83;4.25;;;;;;;17.14;100.00;100166.84;1749047;82;20983;-43
2022/08/03 00:11:34;;;;;;;5.08;3.52;;;;;;;17.13;100.00;100160.78;1749082;82;20928;-43
2022/08/03 00:14:01;;;;;;;4.70;3.67;;;;;;;17.14;100.00;100161.16;1748973;82;21310;-43
2022/08/03 00:16:28;;;;;;;5.45;3.77;;;;;;;17.14;100.00;100155.93;1749104;82;21042;-43
2022/08/03 00:18:55;;;;;;;8.15;4.03;;;;;;;17.15;100.00;100155.45;1749039;82;22160;-43
2022/08/03 00:21:22;;;;;;;5.75;4.08;;;;;;;17.18;100.00;100159.25;1749069;81;20920;-43
2022/08/03 00:23:49;;;;;;;6.78;4.12;;;;;;;17.20;100.00;100150.86;1749272;81;21003;-43
2022/08/03 00:26:16;;;;;;;7.58;3.95;;;;;;;17.23;100.00;100149.39;1749242;82;21023;-42
2022/08/03 00:28:43;;;;;;;11.88;4.25;;;;;;;17.26;100.00;100159.69;1749324;82;20967;-43
2022/08/03 00:31:09;;;;;;;4.65;4.20;;;;;;;17.26;100.00;100161.45;1722023;82;21156;-43
2022/08/03 00:33:36;;;;;;;5.53;4.28;;;;;;;17.28;100.00;100168.75;1749209;81;21626;-44
2022/08/03 00:36:03;;;;;;;6.95;4.28;;;;;;;17.26;100.00;100169.30;1730763;81;20972;-43
2022/08/03 00:38:31;;;;;;;8.80;4.90;;;;;;;17.26;100.00;100170.16;1693173;83;20980;-43
2022/08/03 00:40:58;;;;;;;6.35;4.00;;;;;;;17.26;100.00;100174.52;1719263;82;20910;-43
2022/08/03 00:43:26;;;;;;;9.85;4.80;;;;;;;17.23;100.00;100171.63;1719470;83;21238;-43
2022/08/03 00:45:54;;;;;;;7.03;4.78;;;;;;;17.21;100.00;100166.45;1719344;83;20991;-44
2022/08/03 00:48:21;;;;;;;11.48;4.80;;;;;;;17.20;100.00;100163.94;1719489;83;21062;-43
2022/08/03 00:50:49;;;;;;;9.60;4.42;;;;;;;17.18;100.00;100164.48;1692763;83;20979;-43
2022/08/03 00:53:16;;;;;;;6.03;5.00;;;;;;;17.17;100.00;100161.00;1719458;83;20986;-43
2022/08/03 00:55:43;;;;;;;5.53;4.87;;;;;;;17.17;100.00;100157.53;1719587;83;21154;-43
2022/08/03 00:58:10;;;;;;;16.37;5.37;;;;;;;17.16;100.00;100158.00;1719395;82;20996;-43
2022/08/03 01:00:39;;;;;;;5.83;4.12;;;;;;;17.14;100.00;100155.93;1719441;83;21015;-43
2022/08/03 01:03:07;;;;;;;8.55;5.08;;;;;;;17.14;100.00;100157.69;1709870;83;21471;-44
2022/08/03 01:06:03;;;;;;;9.85;5.40;;;;;;;17.13;100.00;100152.94;1705998;84;21075;-43
2022/08/03 01:08:45;;;;;;;8.13;4.30;;;;;;;17.13;100.00;100151.63;1705799;84;21282;-43
2022/08/03 01:11:35;;;;;;;7.55;4.83;;;;;;;17.13;100.00;100149.45;1705870;84;20960;-44
2022/08/03 01:14:12;;;;;;;5.90;5.40;;;;;;;17.14;100.00;100150.70;1705933;84;20928;-43
2022/08/03 01:16:44;;;;;;;9.35;5.60;;;;;;;17.15;100.00;100148.47;1705768;84;20947;-44
2022/08/03 01:19:57;;;;;;;13.30;5.75;;;;;;;17.16;100.00;100147.55;1706143;84;20894;-43
2022/08/03 01:22:57;;;;;;;9.43;6.10;;;;;;;17.14;100.00;100144.61;1705822;84;21153;-43
2022/08/03 01:25:48;;;;;;;8.63;6.03;;;;;;;17.09;100.00;100140.95;1684947;83;21301;-44
2022/08/03 01:28:27;;;;;;;6.37;5.50;;;;;;;17.07;100.00;100141.48;1705293;83;20948;-44
2022/08/03 01:30:56;;;;;;;8.15;6.10;;;;;;;17.04;100.00;100133.77;1705804;84;20972;-43
2022/08/03 01:33:34;;;;;;;9.93;6.95;;;;;;;17.00;100.00;100138.33;1705945;84;21031;-44
2022/08/03 01:36:12;;;;;;;7.50;6.67;;;;;;;16.96;100.00;100131.53;1705718;83;21204;-43
2022/08/03 01:38:42;;;;;;;10.23;6.55;;;;;;;16.92;100.00;100142.59;1705689;83;21491;-44
2022/08/03 01:41:16;;;;;;;12.35;7.08;;;;;;;16.92;100.00;100145.21;1705873;83;20937;-43
2022/08/03 01:43:44;;;;;;;7.28;6.55;;;;;;;16.90;100.00;100139.66;1705787;84;21016;-44
2022/08/03 01:46:11;;;;;;;9.65;6.40;;;;;;;16.87;100.00;100138.06;1706026;84;21087;-45
2022/08/03 01:48:39;;;;;;;14.05;7.50;;;;;;;16.88;100.00;100141.52;1705906;84;21263;-43
2022/08/03 01:51:08;;;;;;;9.20;6.92;;;;;;;16.88;100.00;100143.68;1705777;84;20964;-43
2022/08/03 01:53:36;;;;;;;13.62;7.33;;;;;;;16.88;100.00;100146.30;1705659;84;20909;-44
2022/08/03 01:56:03;;;;;;;8.95;6.90;;;;;;;16.86;100.00;100151.20;1685546;84;21020;-43
2022/08/03 01:58:31;;;;;;;12.05;7.03;;;;;;;16.86;100.00;100149.89;1705887;84;20996;-44
2022/08/03 02:00:59;;;;;;;9.80;7.03;;;;;;;16.85;100.00;100143.83;1685575;84;21062;-44
2022/08/03 02:03:28;;;;;;;10.10;6.97;;;;;;;16.85;100.00;100143.83;1715338;83;20905;-43
2022/08/03 02:05:55;;;;;;;16.20;7.67;;;;;;;16.84;100.00;100138.67;1719434;83;20904;-43
2022/08/03 02:08:24;;;;;;;12.90;6.85;;;;;;;16.85;100.00;100144.28;1719218;82;21573;-43
2022/08/03 02:10:51;;;;;;;10.90;7.10;;;;;;;16.85;100.00;100149.06;1719319;83;21502;-44
2022/08/03 02:13:18;;;;;;;9.98;5.97;;;;;;;16.85;100.00;100139.91;1719395;83;21254;-44
2022/08/03 02:15:46;;;;;;;11.68;6.35;;;;;;;16.86;100.00;100145.53;1692530;83;21011;-43
2022/08/03 02:18:13;;;;;;;12.25;6.60;;;;;;;16.84;100.00;100143.45;1719260;83;20979;-44
2022/08/03 02:20:42;;;;;;;9.30;6.33;;;;;;;16.83;100.00;100136.98;1719190;82;20939;-44
2022/08/03 02:23:09;;;;;;;7.97;6.65;;;;;;;16.82;100.00;100141.38;1693545;83;21441;-44
2022/08/03 02:25:43;;;;;;;7.08;5.97;;;;;;;16.82;100.00;100149.22;1719294;83;21853;-43
2022/08/03 02:28:14;;;;;;;9.10;6.17;;;;;;;16.81;100.00;100145.74;1719461;83;20983;-43
2022/08/03 02:30:41;;;;;;;11.48;6.50;;;;;;;16.81;100.00;100141.82;1719266;83;20955;-43
2022/08/03 02:33:13;;;;;;;9.40;6.12;;;;;;;16.80;100.00;100134.91;1719096;83;21243;-43
2022/08/03 02:35:40;;;;;;;11.83;5.90;;;;;;;16.80;100.00;100138.83;1719641;83;20980;-43
2022/08/03 02:38:07;;;;;;;9.48;6.28;;;;;;;16.81;100.00;100137.07;1719321;83;21129;-43
2022/08/03 02:40:34;;;;;;;6.25;5.65;;;;;;;16.82;100.00;100134.84;1719284;83;20995;-43
2022/08/03 02:43:04;;;;;;;8.75;5.80;;;;;;;16.80;100.00;100126.23;1719198;83;20944;-43
2022/08/03 02:45:32;;;;;;;11.63;6.95;;;;;;;16.81;100.00;100130.54;1719256;83;21023;-43
2022/08/03 02:48:00;;;;;;;11.68;6.15;;;;;;;16.80;100.00;100127.55;1719331;83;21023;-43
2022/08/03 02:50:27;;;;;;;9.70;6.25;;;;;;;16.82;100.00;100125.70;1719357;83;21257;-42
2022/08/03 02:52:54;;;;;;;6.87;6.28;;;;;;;16.82;100.00;100119.16;1719150;82;20921;-42
2022/08/03 02:55:21;;;;;;;11.65;6.97;;;;;;;16.82;100.00;100115.24;1719382;83;20930;-43
2022/08/03 02:57:48;;;;;;;12.15;6.70;;;;;;;16.82;100.00;100115.24;1719239;82;20971;-43
2022/08/03 03:00:16;;;;;;;10.60;6.42;;;;;;;16.83;100.00;100119.55;1719404;82;21502;-44
2022/08/03 03:02:43;;;;;;;7.35;6.58;;;;;;;16.85;100.00;100115.53;1719092;83;22112;-43
2022/08/03 03:05:11;;;;;;;10.30;6.60;;;;;;;16.86;100.00;100125.92;1719269;83;21368;-43
2022/08/03 03:07:38;;;;;;;8.13;7.33;;;;;;;16.86;100.00;100125.06;1719307;83;21015;-43
2022/08/03 03:10:07;;;;;;;10.75;7.55;;;;;;;16.87;100.00;100123.69;1719285;82;20983;-43
2022/08/03 03:12:36;;;;;;;7.50;6.80;;;;;;;16.88;100.00;100123.21;1719286;83;21043;-43
2022/08/03 03:15:07;;;;;;;8.15;7.47;;;;;;;16.88;100.00;100124.52;1719196;83;21173;-43
2022/08/03 03:17:35;;;;;;;10.43;8.10;;;;;;;16.88;100.00;100122.77;1719245;83;20968;-43
2022/08/03 03:20:03;;;;;;;11.33;7.53;;;;;;;16.88;100.00;100122.77;1692851;83;20991;-44
2022/08/03 03:22:30;;;;;;;8.83;7.65;;;;;;;16.91;100.00;100126.98;1719191;83;21030;-43
2022/08/03 03:24:57;;;;;;;8.53;7.83;;;;;;;16.91;100.00;100133.52;1719390;83;21577;-43
2022/08/03 03:27:24;;;;;;;12.05;7.28;;;;;;;16.91;100.00;100142.21;1719227;83;21265;-43
2022/08/03 03:29:50;;;;;;;8.83;7.95;;;;;;;16.92;100.00;100146.52;1719190;83;20944;-43
2022/08/03 03:32:17;;;;;;;9.93;8.85;;;;;;;16.93;100.00;100157.36;1719465;83;20968;-42
2022/08/03 03:34:44;;;;;;;14.98;8.38;;;;;;;16.93;100.00;100153.44;1719368;83;21624;-43
2022/08/03 03:37:12;;;;;;;14.13;8.83;;;;;;;16.95;100.00;100157.30;1719302;82;20963;-43
2022/08/03 03:39:39;;;;;;;9.48;8.00;;;;;;;16.95;100.00;100158.13;1719235;83;22060;-43
2022/08/03 03:42:06;;;;;;;11.88;7.80;;;;;;;16.98;100.00;100158.89;1719255;83;20928;-43
2022/08/03 03:44:33;;;;;;;10.98;8.68;;;;;;;17.00;100.00;100161.00;1692669;83;21015;-43
2022/08/03 03:46:59;;;;;;;10.98;8.50;;;;;;;17.00;100.00;100160.55;1692433;83;20987;-43
2022/08/03 03:49:26;;;;;;;10.45;8.65;;;;;;;17.03;100.00;100167.38;1692502;83;20985;-43
2022/08/03 03:51:54;;;;;;;9.70;8.75;;;;;;;17.05;100.00;100173.38;1719509;83;22065;-43
2022/08/03 03:54:21;;;;;;;10.40;9.40;;;;;;;17.06;100.00;100177.71;1719134;83;20936;-43
2022/08/03 03:56:48;;;;;;;13.13;9.85;;;;;;;17.08;100.00;100179.78;1692570;83;21625;-44
2022/08/03 03:59:15;;;;;;;10.93;9.58;;;;;;;17.10;100.00;100175.32;1719257;82;20948;-43
2022/08/03 04:01:41;;;;;;;11.50;9.93;;;;;;;17.13;100.00;100182.14;1719343;83;21015;-43
2022/08/03 04:12:25;;;;;;;10.63;9.60;;;;;;;17.18;100.00;100173.63;1726880;83;20916;-43
2022/08/03 04:14:52;;;;;;;13.20;9.63;;;;;;;17.20;100.00;100179.15;1726834;83;21022;-44
2022/08/03 04:18:51;;;;;;;14.93;9.85;;;;;;;17.28;100.00;100172.67;1797630;79;22655;-43
2022/08/03 04:21:19;;;;;;;13.62;10.13;;;;;;;17.24;100.00;100172.84;1756885;81;20979;-43
2022/08/03 04:23:48;;;;;;;11.15;10.05;;;;;;;17.28;100.00;100175.29;1757322;81;21557;-43
2022/08/03 04:26:19;;;;;;;12.13;9.80;;;;;;;17.29;100.00;100172.61;1757241;81;21467;-43
2022/08/03 04:28:48;;;;;;;11.18;10.05;;;;;;;17.30;100.00;100172.99;1723876;83;20991;-43
2022/08/03 04:31:15;;;;;;;13.45;9.70;;;;;;;17.32;100.00;100176.85;1710224;84;21530;-43
2022/08/03 04:33:43;;;;;;;18.75;9.75;;;;;;;17.32;100.00;100178.16;1721139;83;20971;-43
2022/08/03 04:36:14;;;;;;;11.83;9.90;;;;;;;17.33;100.00;100190.31;1721218;83;21194;-43
2022/08/03 04:39:00;;;;;;;17.20;11.45;;;;;;;17.34;100.00;100190.70;1721045;83;20940;-44
2022/08/03 04:41:27;;;;;;;13.25;10.10;;;;;;;17.35;100.00;100200.23;1721504;83;21589;-43
2022/08/03 04:43:56;;;;;;;13.53;10.40;;;;;;;17.36;100.00;100210.59;1694690;83;21498;-44
2022/08/03 04:46:28;;;;;;;16.17;11.48;;;;;;;17.39;100.00;100214.84;1721576;83;20913;-43
2022/08/03 04:48:55;;;;;;;18.10;10.70;;;;;;;17.42;100.00;100222.53;1720237;83;21293;-43
2022/08/03 04:51:22;;;;;;;15.98;10.98;;;;;;;17.45;100.00;100224.98;1694654;83;20964;-43
2022/08/03 04:53:49;;;;;;;13.18;10.48;;;;;;;17.48;100.00;100227.92;1721069;83;21418;-43
2022/08/03 04:56:16;;;;;;;15.93;10.05;;;;;;;17.50;100.00;100227.37;1721142;83;21507;-43
2022/08/03 04:58:43;;;;;;;14.60;10.53;;;;;;;17.52;100.00;100230.28;1721196;83;21000;-43
2022/08/03 05:01:10;;;;;;;14.85;9.88;;;;;;;17.54;100.00;100238.06;1721241;83;21246;-43
2022/08/03 05:03:37;;;;;;;11.20;10.00;;;;;;;17.53;100.00;100237.20;1721395;83;21506;-44
2022/08/03 05:06:05;;;;;;;14.28;10.23;;;;;;;17.52;100.00;100239.44;1721265;83;20940;-44
2022/08/03 05:08:31;;;;;;;12.00;9.93;;;;;;;17.51;100.00;100228.59;1694857;83;21054;-43
2022/08/03 05:10:59;;;;;;;13.18;9.63;;;;;;;17.49;100.00;100219.98;1721258;83;20980;-43
2022/08/03 05:13:26;;;;;;;14.15;9.95;;;;;;;17.46;100.00;100210.98;1721200;83;21211;-43
2022/08/03 05:15:54;;;;;;;12.73;10.88;;;;;;;17.43;100.00;100207.22;1688016;83;21042;-44
2022/08/03 05:18:21;;;;;;;12.63;10.82;;;;;;;17.42;100.00;100208.59;1704041;83;20991;-43
2022/08/03 05:20:47;;;;;;;11.85;10.05;;;;;;;17.42;100.00;100211.20;1693937;84;21573;-43
2022/08/03 05:23:14;;;;;;;12.07;10.98;;;;;;;17.42;100.00;100216.44;1679072;84;21035;-43
2022/08/03 05:25:42;;;;;;;13.68;9.98;;;;;;;17.41;100.00;100214.30;1672373;85;21824;-43
2022/08/03 05:28:09;;;;;;;15.80;11.78;;;;;;;17.42;100.00;100216.44;1645371;85;21051;-43
2022/08/03 05:30:37;;;;;;;12.93;10.93;;;;;;;17.42;100.00;100225.15;1672079;85;21004;-43
2022/08/03 05:33:04;;;;;;;12.60;11.30;;;;;;;17.42;100.00;100219.92;1672281;85;20944;-43
2022/08/03 05:35:32;;;;;;;13.53;11.80;;;;;;;17.43;100.00;100225.53;1672226;85;21023;-43
2022/08/03 05:37:59;;;;;;;22.15;12.60;;;;;;;17.43;100.00;100224.67;1672481;85;21510;-43
2022/08/03 05:40:26;;;;;;;13.68;11.53;;;;;;;17.43;100.00;100231.20;1679483;84;21058;-42
2022/08/03 05:42:53;;;;;;;16.02;12.37;;;;;;;17.44;100.00;100235.07;1700611;84;21062;-43
2022/08/03 05:45:20;;;;;;;21.93;13.25;;;;;;;17.45;100.00;100238.07;1686602;84;21576;-43
2022/08/03 05:47:49;;;;;;;14.40;12.88;;;;;;;17.46;100.00;100247.61;1672266;85;21011;-43
2022/08/03 05:50:17;;;;;;;17.17;12.23;;;;;;;17.46;100.00;100246.30;1679515;84;21136;-43
2022/08/03 05:52:44;;;;;;;14.93;12.85;;;;;;;17.46;100.00;100248.92;1678756;83;20958;-43
2022/08/03 05:55:11;;;;;;;14.73;12.15;;;;;;;17.46;100.00;100256.77;1672374;84;21457;-44
2022/08/03 05:57:38;;;;;;;15.30;12.07;;;;;;;17.47;100.00;100261.55;1672274;84;21667;-43
2022/08/03 06:00:08;;;;;;;14.28;12.78;;;;;;;17.44;100.00;100256.00;1672336;85;21066;-43
2022/08/03 06:02:41;;;;;;;15.20;12.00;;;;;;;17.43;100.00;100263.47;1672314;85;21089;-43
2022/08/03 06:05:09;;;;;;;16.07;13.13;;;;;;;17.42;100.00;100260.91;1684622;85;21046;-44
2022/08/03 06:07:37;;;;;;;15.20;12.40;;;;;;;17.42;100.00;100259.60;1673155;84;20992;-43
2022/08/03 06:10:06;;;;;;;17.80;13.10;;;;;;;17.40;100.00;100266.23;1655313;86;20927;-43
2022/08/03 06:12:36;;;;;;;13.90;12.47;;;;;;;17.39;100.00;100268.47;1672559;85;21083;-43
2022/08/03 06:15:04;;;;;;;19.60;13.25;;;;;;;17.41;100.00;100270.55;1655373;86;21281;-43
2022/08/03 06:17:32;;;;;;;15.68;13.38;;;;;;;17.41;100.00;100269.23;1629403;87;21103;-43
2022/08/03 06:20:01;;;;;;;14.20;12.65;;;;;;;17.43;100.00;100259.55;1651916;85;20952;-43
2022/08/03 06:22:28;;;;;;;15.50;13.48;;;;;;;17.45;100.00;100260.31;1679147;85;21030;-44
2022/08/03 06:24:55;;;;;;;15.93;12.73;;;;;;;17.47;100.00;100255.84;1714594;82;21103;-44
2022/08/03 06:27:21;;;;;;;19.67;13.30;;;;;;;17.48;100.00;100251.47;1713367;83;21069;-43
2022/08/03 06:29:48;;;;;;;16.42;12.73;;;;;;;17.49;100.00;100259.22;1713188;83;21246;-44
2022/08/03 06:32:15;;;;;;;19.30;13.60;;;;;;;17.51;100.00;100259.98;1713310;83;21055;-44
2022/08/03 06:34:42;;;;;;;16.75;13.48;;;;;;;17.52;100.00;100260.85;1736200;82;21019;-44
2022/08/03 06:37:09;;;;;;;14.68;13.18;;;;;;;17.55;100.00;100255.45;1743058;82;20940;-44
2022/08/03 06:39:35;;;;;;;14.78;13.30;;;;;;;17.56;100.00;100257.15;1743080;82;21181;-44
2022/08/03 06:42:02;;;;;;;17.15;13.38;;;;;;;17.55;100.00;100258.52;1725558;82;21630;-43
2022/08/03 06:44:29;;;;;;;16.35;13.70;;;;;;;17.55;100.00;100254.59;1713355;83;20944;-43
2022/08/03 06:46:57;;;;;;;16.55;13.88;;;;;;;17.56;100.00;100255.84;1713369;83;21054;-43
2022/08/03 06:49:24;;;;;;;14.83;13.28;;;;;;;17.58;100.00;100255.78;1713479;83;21027;-44
2022/08/03 06:51:52;;;;;;;15.83;13.30;;;;;;;17.60;100.00;100259.16;1713311;83;21223;-43
2022/08/03 06:54:21;;;;;;;15.00;13.35;;;;;;;17.61;100.00;100262.16;1713487;83;21016;-44
2022/08/03 06:56:48;;;;;;;16.42;14.10;;;;;;;17.61;100.00;100259.55;1713397;83;20971;-44
2022/08/03 06:59:15;;;;;;;20.43;14.03;;;;;;;17.63;100.00;100262.92;1714427;82;21075;-44
2022/08/03 07:01:42;;;;;;;16.27;14.28;;;;;;;17.66;100.00;100264.08;1713469;83;21019;-44
2022/08/03 07:04:11;;;;;;;16.73;13.50;;;;;;;17.69;100.00;100265.22;1713386;83;21752;-44
2022/08/03 07:06:40;;;;;;;15.75;12.88;;;;;;;17.73;100.00;100268.06;1730468;82;20972;-43
2022/08/03 07:09:08;;;;;;;14.33;12.68;;;;;;;17.71;100.00;100258.61;1672891;85;20997;-46
2022/08/03 07:11:35;;;;;;;17.90;14.50;;;;;;;17.70;100.00;100261.67;1675486;85;21009;-44
2022/08/03 07:14:03;;;;;;;17.50;13.93;;;;;;;17.70;100.00;100264.77;1677025;84;20999;-44
2022/08/03 07:16:30;;;;;;;15.98;13.72;;;;;;;17.69;100.00;100265.22;1688513;84;22230;-44
2022/08/03 07:18:57;;;;;;;14.83;13.25;;;;;;;17.70;100.00;100268.70;1677615;83;21047;-44
2022/08/03 07:21:23;;;;;;;15.65;14.00;;;;;;;17.70;100.00;100273.45;1672554;85;21244;-44
2022/08/03 07:23:51;;;;;;;14.25;12.80;;;;;;;17.71;100.00;100280.38;1672476;85;21043;-44
2022/08/03 07:26:18;;;;;;;17.17;13.25;;;;;;;17.74;100.00;100281.53;1672317;85;20955;-44
2022/08/03 07:28:44;;;;;;;18.60;13.93;;;;;;;17.78;100.00;100282.23;1672300;85;22080;-43
2022/08/03 07:31:11;;;;;;;14.50;13.08;;;;;;;17.79;100.00;100286.06;1672390;85;20975;-43
2022/08/03 07:33:38;;;;;;;19.98;13.93;;;;;;;17.79;100.00;100280.82;1686249;84;20940;-45
2022/08/03 07:36:05;;;;;;;16.32;13.30;;;;;;;17.81;100.00;100284.23;1672342;85;20940;-44
2022/08/03 07:38:34;;;;;;;15.40;13.78;;;;;;;17.84;100.00;100284.52;1662980;84;21027;-43
2022/08/03 07:41:03;;;;;;;17.50;13.62;;;;;;;17.86;100.00;100285.28;1673847;84;21223;-44
2022/08/03 07:43:30;;;;;;;15.88;14.03;;;;;;;17.88;100.00;100290.45;1640832;87;20984;-43
2022/08/03 07:45:57;;;;;;;15.83;14.23;;;;;;;17.86;100.00;100291.00;1639206;87;21008;-44
2022/08/03 07:48:24;;;;;;;20.17;14.87;;;;;;;17.87;100.00;100296.62;1639224;85;21004;-44
2022/08/03 07:50:51;;;;;;;18.25;14.45;;;;;;;17.87;100.00;100302.69;1684975;84;21576;-44
2022/08/03 07:53:18;;;;;;;15.90;14.23;;;;;;;17.88;100.00;100297.00;1672503;85;21908;-43
2022/08/03 07:55:45;;;;;;;18.87;13.53;;;;;;;17.89;100.00;100302.63;1695389;84;21004;-44
2022/08/03 07:58:15;;;;;;;16.75;14.40;;;;;;;17.92;100.00;100301.15;1685683;84;21011;-44
2022/08/03 08:00:41;;;;;;;17.52;15.20;;;;;;;17.94;100.00;100305.84;1672433;85;20999;-44
2022/08/03 08:03:08;;;;;;;20.55;15.53;;;;;;;17.97;100.00;100310.09;1672706;84;21491;-44
2022/08/03 08:05:36;;;;;;;16.75;15.15;;;;;;;17.97;100.00;100304.84;1677625;84;21881;-44
2022/08/03 08:08:03;;;;;;;18.57;15.98;;;;;;;17.99;100.00;100307.75;1684732;84;20979;-45
2022/08/03 08:10:31;;;;;;;18.27;15.85;;;;;;;17.98;100.00;100313.91;1626465;87;21046;-44
2022/08/03 08:12:58;;;;;;;16.48;14.80;;;;;;;17.95;100.00;100316.70;1639104;87;21079;-44
2022/08/03 08:15:25;;;;;;;16.93;14.85;;;;;;;17.93;100.00;100318.07;1637626;87;21005;-44
2022/08/03 08:17:55;;;;;;;26.35;15.88;;;;;;;17.94;100.00;100334.20;1681838;84;21278;-44
2022/08/03 08:20:27;;;;;;;22.93;16.10;;;;;;;17.95;100.00;100337.20;1704310;84;21625;-44
2022/08/03 08:23:04;;;;;;;19.80;15.78;;;;;;;18.01;100.00;100336.48;1693156;84;20960;-45
2022/08/03 08:25:31;;;;;;;17.00;15.30;;;;;;;18.04;100.00;100337.19;1699725;83;20961;-45
2022/08/03 08:28:03;;;;;;;17.70;15.90;;;;;;;18.02;100.00;100327.27;1678999;85;21005;-45
2022/08/03 08:30:31;;;;;;;17.30;15.58;;;;;;;18.02;100.00;100330.36;1711514;82;21882;-45
2022/08/03 08:32:59;;;;;;;19.02;16.02;;;;;;;18.04;100.00;100330.64;1676458;85;21253;-45
2022/08/03 08:35:27;;;;;;;16.70;14.93;;;;;;;18.03;100.00;100330.26;1711977;83;20996;-44
2022/08/03 08:37:55;;;;;;;20.50;15.65;;;;;;;18.03;100.00;100331.57;1662367;85;21000;-44
2022/08/03 08:40:23;;;;;;;18.82;15.93;;;;;;;18.02;100.00;100335.11;1706624;82;20955;-45
2022/08/03 08:42:51;;;;;;;16.97;14.90;;;;;;;18.04;100.00;100335.05;1701279;84;21166;-45
2022/08/03 08:45:18;;;;;;;18.52;14.80;;;;;;;18.04;100.00;100330.64;1727087;82;20961;-44
2022/08/03 08:47:48;;;;;;;19.85;15.20;;;;;;;18.04;100.00;100321.95;1698427;84;21030;-48
2022/08/03 08:50:19;;;;;;;15.35;13.75;;;;;;;18.04;100.00;100318.86;1683561;83;20964;-45
2022/08/03 08:52:49;;;;;;;18.90;14.68;;;;;;;18.03;100.00;100314.55;1687594;84;21073;-45
2022/08/03 08:55:20;;;;;;;17.25;15.40;;;;;;;18.02;100.00;100323.81;1709367;83;21192;-44
2022/08/03 08:58:00;;;;;;;17.82;14.93;;;;;;;18.02;100.00;100324.64;1685521;83;21528;-44
2022/08/03 09:00:27;;;;;;;17.12;15.40;;;;;;;18.03;100.00;100324.19;1702381;83;20945;-44
2022/08/03 09:02:54;;;;;;;16.70;14.65;;;;;;;18.06;100.00;100327.52;1713795;83;21498;-44
2022/08/03 09:05:21;;;;;;;19.55;16.02;;;;;;;18.07;100.00;100320.48;1681823;85;21535;-44
2022/08/03 09:07:51;;;;;;;17.23;15.45;;;;;;;18.09;100.00;100324.73;1678571;85;21209;-44
2022/08/03 09:10:20;;;;;;;17.30;15.53;;;;;;;18.08;100.00;100328.28;1707852;83;21050;-44
2022/08/03 09:12:50;;;;;;;17.73;15.15;;;;;;;18.13;100.00;100328.49;1665079;84;21017;-44
2022/08/03 09:15:24;;;;;;;19.07;16.52;;;;;;;18.16;100.00;100321.78;1707135;83;20966;-44
2022/08/03 09:17:55;;;;;;;19.52;17.42;;;;;;;18.18;100.00;100323.85;1696302;83;20982;-44
2022/08/03 09:20:24;;;;;;;17.37;15.50;;;;;;;18.22;100.00;100329.31;1687386;85;21227;-44
2022/08/03 09:22:57;;;;;;;16.02;14.43;;;;;;;18.26;100.00;100338.70;1687526;85;21513;-44
2022/08/03 09:25:35;;;;;;;16.02;14.38;;;;;;;18.27;100.00;100339.08;1690601;83;20947;-44
2022/08/03 09:28:14;;;;;;;16.85;14.65;;;;;;;18.28;100.00;100339.94;1687597;85;20983;-44
2022/08/03 09:30:43;;;;;;;15.40;13.90;;;;;;;18.27;100.00;100343.00;1692386;83;21010;-44
2022/08/03 09:33:15;;;;;;;16.80;14.05;;;;;;;18.30;100.00;100335.46;1648272;85;21085;-44
2022/08/03 09:35:43;;;;;;;15.10;13.70;;;;;;;18.30;100.00;100342.02;1678486;84;21021;-44
2022/08/03 09:38:13;;;;;;;15.58;14.03;;;;;;;18.30;100.00;100338.91;1689167;83;20986;-44
2022/08/03 09:40:41;;;;;;;17.75;14.85;;;;;;;18.34;100.00;100341.78;1688431;83;21010;-44
2022/08/03 09:43:09;;;;;;;17.62;15.15;;;;;;;18.43;100.00;100348.28;1709307;83;20911;-44
2022/08/03 09:45:37;;;;;;;16.00;13.78;;;;;;;18.54;100.00;100352.95;1707960;83;21095;-44
2022/08/03 09:48:28;;;;;;;18.32;14.33;;;;;;;18.63;100.00;100348.55;1696638;83;20939;-44
2022/08/03 09:51:00;;;;;;;16.97;14.45;;;;;;;18.67;100.00;100351.83;1688873;83;20998;-43
2022/08/03 09:53:27;;;;;;;15.45;13.85;;;;;;;18.67;100.00;100355.30;1686152;85;21072;-43
2022/08/03 09:55:58;;;;;;;17.15;15.25;;;;;;;18.73;100.00;100353.28;1686124;85;20959;-43
2022/08/03 09:58:26;;;;;;;19.60;14.43;;;;;;;18.74;100.00;100343.17;1687574;85;21319;-43
2022/08/03 10:01:04;;;;;;;15.55;13.95;;;;;;;18.80;100.00;100346.76;1687076;84;21600;-43
2022/08/03 10:03:37;;;;;;;14.55;13.05;;;;;;;18.86;100.00;100348.20;1686332;84;21010;-42
2022/08/03 10:06:25;;;;;;;15.20;13.60;;;;;;;18.91;100.00;100342.23;1667160;85;21565;-45
2022/08/03 10:09:10;;;;;;;15.45;13.55;;;;;;;18.94;100.00;100342.92;1688453;83;21005;-45
2022/08/03 10:11:37;;;;;;;17.07;14.73;;;;;;;18.95;100.00;100353.80;1659897;86;21137;-44
2022/08/03 10:14:06;;;;;;;19.17;13.85;;;;;;;19.01;100.00;100357.03;1690943;83;21070;-44
2022/08/03 10:16:35;;;;;;;15.20;13.40;;;;;;;19.03;100.00;100352.55;1687547;85;21022;-44
2022/08/03 10:19:06;;;;;;;15.23;13.65;;;;;;;19.09;100.00;100361.41;1688912;83;20979;-44
2022/08/03 10:21:43;;;;;;;16.05;12.90;;;;;;;19.16;100.00;100364.06;1651676;86;21493;-44
2022/08/03 10:24:09;;;;;;;14.55;13.15;;;;;;;19.22;100.00;100366.81;1672122;85;21147;-43
2022/08/03 10:26:39;;;;;;;14.30;12.65;;;;;;;19.27;100.00;100363.91;1679011;85;20951;-43
2022/08/03 10:29:11;;;;;;;14.75;12.25;;;;;;;19.22;100.00;100366.33;1671993;85;21024;-43
2022/08/03 10:31:39;;;;;;;14.83;12.90;;;;;;;19.19;100.00;100361.26;1677383;85;21637;-43
2022/08/03 10:34:19;;;;;;;15.32;13.53;;;;;;;19.16;100.00;100361.44;1672327;85;21031;-43
2022/08/03 10:36:46;;;;;;;15.03;13.53;;;;;;;19.20;100.00;100364.74;1679058;85;21154;-43
2022/08/03 10:39:13;;;;;;;19.87;14.58;;;;;;;19.21;100.00;100357.25;1672238;85;21018;-43
2022/08/03 10:41:45;;;;;;;16.20;14.50;;;;;;;19.13;100.00;100356.36;1679119;85;21091;-43
2022/08/03 10:44:13;;;;;;;20.62;15.98;;;;;;;19.11;100.00;100359.54;1649344;87;20987;-42
2022/08/03 10:46:40;;;;;;;17.90;16.10;;;;;;;19.12;100.00;100362.55;1679240;84;20991;-43
2022/08/03 10:49:07;;;;;;;21.65;16.48;;;;;;;19.12;100.00;100357.75;1672296;85;21149;-44
2022/08/03 10:51:34;;;;;;;21.55;17.55;;;;;;;19.16;100.00;100357.50;1679039;85;21079;-44
2022/08/03 10:54:01;;;;;;;19.73;17.85;;;;;;;19.19;100.00;100356.02;1678992;85;21011;-43
2022/08/03 10:59:50;;;;;;;21.48;19.10;;;;;;;19.12;100.00;100353.36;1713441;83;21027;-43
2022/08/03 11:02:18;;;;;;;35.90;24.20;;;;;;;19.13;100.00;100348.50;1713303;83;21338;-43
2022/08/03 11:04:44;;;;;;;39.58;25.88;;;;;;;19.12;100.00;100342.88;1713436;83;21035;-44
2022/08/03 11:07:23;;;;;;;37.80;26.23;;;;;;;19.03;100.00;100340.74;1713533;83;20979;-44
2022/08/03 11:09:54;;;;;;;42.40;26.20;;;;;;;18.97;100.00;100339.30;1713401;83;20980;-44
2022/08/03 11:12:30;;;;;;;44.60;26.82;;;;;;;18.95;100.00;100339.37;1713505;83;21007;-44
2022/08/03 11:15:00;;;;;;;40.15;27.60;;;;;;;18.99;100.00;100333.98;1713328;83;21284;-44
2022/08/03 11:17:28;;;;;;;39.05;25.97;;;;;;;19.01;100.00;100337.36;1713460;83;20932;-44
2022/08/03 11:19:55;;;;;;;35.00;26.05;;;;;;;19.08;100.00;100334.31;1716557;83;20980;-44
2022/08/03 11:22:23;;;;;;;37.28;24.07;;;;;;;19.16;100.00;100330.41;1719339;83;20944;-44
2022/08/03 11:24:56;;;;;;;25.00;19.67;;;;;;;19.21;100.00;100324.45;1719714;83;20992;-43
2022/08/03 11:27:31;;;;;;;21.95;18.12;;;;;;;19.28;100.00;100319.68;1726619;82;21109;-43
2022/08/03 11:30:09;;;;;;;22.62;17.48;;;;;;;19.29;100.00;100318.75;1719900;82;20936;-43